Cytokinetics Inc (NASDAQ:CYTK)

CAPS Rating: 3 out of 5

A biopharmaceutical company, focused on developing small molecule therapeutics for the treatment of cardiovascular diseases and cancer.

Results 1 - 99 of 190 : 1 2 Next »
Top
Pick
Member Name Member
Rating
Start
Date
Call Time
Frame
Start
Price
Stock
Gain
Index
Gain
Score Commentary
ptanabe 63.57 9/9/2014 Outperform 5Y $3.67 +5.51% +0.33% +5.18 1 Comment
GyroDynasty 98.81 7/21/2014 Outperform 5Y $4.25 -8.82% +1.86% -10.69 0 Comment
OKwarrior 33.24 6/6/2014 Outperform 5Y $4.88 -20.59% +3.02% -23.62 1 Comment
ArmyRob 75.55 5/7/2014 Underperform 5Y $4.14 -6.40% +7.06% +13.46 0 Comment
foufou1971 71.34 4/28/2014 Outperform 1Y $4.35 -10.92% +8.03% -18.95 0 Comment
AsianMatter 31.32 4/28/2014 Outperform 3W $4.58 -15.39% +7.33% -22.72 0 Comment
portefeuille2 99.66 4/25/2014 Outperform 5Y $4.91 -21.00% +7.60% -28.60 0 Comment
peregrine 98.14 4/25/2014 Outperform 5Y $5.07 -23.57% +7.88% -31.45 0 Comment
SandmanKy 94.88 4/25/2014 Outperform 5Y $5.01 -22.65% +7.63% -30.28 0 Comment
DoubleBagel 78.68 4/25/2014 Outperform 5Y $5.22 -25.77% +7.20% -32.96 0 Comment
portefeuille 99.60 4/16/2014 Outperform 5Y $8.95 -56.70% +8.24% -64.95 0 Comment
TerryFool < 20 4/15/2014 Outperform 5Y $8.94 -56.66% +10.24% -66.89 1 Comment
TerryHoodSr 56.65 4/15/2014 Outperform 5Y $8.94 -56.66% +9.54% -66.20 1 Comment
msb09 22.46 4/2/2014 Outperform 3M $9.79 -60.42% +6.50% -66.92 0 Comment
Haugurafpeningum 35.52 3/31/2014 Outperform 5Y $9.20 -57.88% +7.56% -65.44 0 Comment
IVolStrategy < 20 3/26/2014 Outperform 1Y $9.02 -57.04% +7.34% -64.38 0 Comment
BioForcePicks1 92.87 3/25/2014 Outperform 3M $8.94 -56.66% +7.85% -64.51 0 Comment
Dmaral < 20 2/27/2014 Outperform 5Y $10.31 -62.42% +8.36% -70.77 0 Comment
car990le 51.11 1/21/2014 Outperform 5Y $8.91 -56.51% +8.70% -65.20 0 Comment
Plasmidologist 58.70 1/16/2014 Outperform 5Y $9.27 -58.20% +9.13% -67.33 0 Comment
This player feels very strongly about this pick and has marked it a Top Pick. Top Picks do not affect a player’s score. s2dbaker 87.50 1/10/2014 Outperform 5Y $9.22 -57.97% +9.33% -67.30 1 Comment
flypower 98.08 1/7/2014 Outperform 5Y $7.30 -46.92% +9.65% -56.57 0 Comment
HoosierDoozer < 20 12/23/2013 Outperform 5Y $6.60 -41.29% +9.98% -51.27 0 Comment
grahamfordummies 72.17 8/8/2013 12/4/2013 Outperform 3Y $10.21 -62.05% +18.11% -80.16 1 Comment
cavemantrader 57.03 11/7/2013 Outperform 5Y $6.33 -38.78% +14.73% -53.52 0 Comment
mandynshane < 20 10/8/2013 Outperform NS $6.69 -42.08% +20.38% -62.46 0 Comment
ImFive 30.78 10/7/2013 Outperform 5Y $7.03 -44.88% +19.91% -64.79 0 Comment
ralonsot < 20 10/2/2013 Outperform 5Y $7.38 -47.49% +18.92% -66.42 0 Comment
withoutDoubt 24.27 9/5/2013 Outperform 5Y $8.32 -53.45% +20.85% -74.31 0 Comment
fatmoneyrz 97.91 9/3/2013 Outperform 5Y $7.79 -50.26% +21.46% -71.72 0 Comment
KidJones 97.62 9/3/2013 Outperform 5Y $8.62 -55.05% +21.50% -76.55 0 Comment
maximstrelzow 99.09 8/30/2013 Outperform NS $10.81 -64.15% +22.04% -86.19 0 Comment
Greeniesnack 53.87 8/23/2013 Outperform 5Y $11.11 -65.12% +20.54% -85.66 0 Comment
FoolPep 34.38 8/22/2013 Outperform 3M $11.60 -66.59% +21.75% -88.34 0 Comment
SCOTTRHUETTLCPA 64.34 8/19/2013 Underperform 3W $10.18 -61.94% +21.54% +83.48 0 Comment
rknapton < 20 8/7/2013 Underperform 5Y $10.55 -63.27% +18.66% +81.93 1 Comment
ababrmon 88.22 7/31/2013 Outperform 3M $12.47 -68.93% +19.02% -87.94 0 Comment
efarev 98.92 2/4/2011 7/26/2013 Outperform 5Y $11.16 -65.28% +53.42% -118.69 0 Comment
ronmcpeek < 20 7/19/2013 Outperform 5Y $13.43 -71.15% +19.13% -90.28 0 Comment
TMFEZMagic 52.39 7/15/2013 Underperform 5Y $13.76 -71.84% +19.56% +91.40 0 Comment
batman35 24.48 7/12/2013 Outperform 1Y $13.60 -71.51% +19.86% -91.36 0 Comment
kaletbaldrich27 < 20 7/10/2013 Outperform 1Y $13.30 -70.86% +21.82% -92.68 1 Comment
OriginalBarnacle 67.67 7/1/2013 Underperform 1Y $11.58 -66.54% +24.49% +91.03 0 Comment
Jsams82 < 20 7/1/2013 Outperform 1Y $11.58 -66.54% +24.49% -91.03 0 Comment
JJ68 < 20 6/26/2013 Outperform 5Y $12.10 -67.99% +25.79% -93.78 0 Comment
ytryan 65.79 6/19/2013 Outperform 5Y $11.28 -65.65% +21.92% -87.57 0 Comment
Scraming < 20 6/19/2013 Outperform 3M $11.58 -66.54% +21.28% -87.82 0 Comment
saab93boi < 20 6/18/2013 Underperform 5Y $11.10 -65.09% +21.01% +86.10 0 Comment
shonny2 < 20 5/22/2013 Outperform 5Y $6.90 -43.84% +19.74% -63.58 0 Comment
OttoBismarck 99.90 5/10/2013 Underperform 5Y $6.42 -39.64% +23.17% +62.81 0 Comment
ava5147 < 20 2/19/2013 Outperform 1Y $6.24 -37.90% +31.76% -69.66 0 Comment
mcdbenbe 46.70 2/19/2013 Outperform 5Y $6.24 -37.90% +31.76% -69.66 0 Comment
montys3 47.50 1/22/2013 Outperform 5Y $5.99 -35.27% +34.88% -70.15 0 Comment
Spyrig < 20 12/17/2012 Outperform 5Y $4.02 -3.61% +40.91% -44.52 0 Comment
mdrnsamurai < 20 12/12/2012 Outperform 5Y $4.29 -9.67% +39.42% -49.09 0 Comment
jack0071 72.88 11/27/2012 Outperform 3Y $4.20 -7.74% +42.47% -50.21 0 Comment
danculbertson 52.75 10/15/2012 Outperform 3M $4.41 -12.13% +39.74% -51.87 0 Comment
millerto 47.11 8/31/2012 Outperform 1Y $4.58 -15.34% +42.44% -57.79 0 Comment
IdahoInvestor 29.02 8/8/2012 Underperform 5Y $4.00 -3.14% +42.88% +46.02 0 Comment
iadops40 34.00 7/13/2012 Outperform 1Y $4.02 -3.61% +49.98% -53.58 0 Comment
THERULERGOD < 20 7/11/2012 Outperform 5Y $4.26 -9.04% +49.59% -58.62 0 Comment
greentah 60.95 7/9/2012 Outperform 5Y $4.32 -10.30% +48.29% -58.59 0 Comment
HongHue < 20 7/6/2012 Outperform 1Y $3.90 -0.64% +48.20% -48.84 0 Comment
Harlequinvestor 36.01 6/18/2012 Outperform 1Y $5.16 -24.90% +50.29% -75.20 0 Comment
ConradMike55 < 20 5/10/2012 Outperform 3W $5.58 -30.56% +46.88% -77.44 0 Comment
Arsenal1860 22.67 5/10/2012 Outperform 5Y $5.58 -30.56% +46.88% -77.44 0 Comment
MythQuinn 86.81 5/8/2012 Outperform 3Y $5.52 -29.80% +47.06% -76.86 0 Comment
stainsolution 38.31 5/8/2012 Outperform 5Y $5.70 -32.02% +47.31% -79.33 0 Comment
foolbull12 < 20 5/8/2012 Outperform 5Y $5.52 -29.80% +47.48% -77.28 0 Comment
RBuskey106 47.47 3/15/2012 Outperform 5Y $7.14 -45.73% +42.82% -88.55 1 Comment
TechSci < 20 3/6/2012 Outperform 5Y $6.54 -40.75% +48.77% -89.52 0 Comment
mhy729 31.27 2/17/2011 2/13/2012 Outperform 1Y $9.18 -57.78% +50.16% -107.93 0 Comment
drt2202 < 20 12/29/2011 Outperform 5Y $5.94 -34.76% +60.30% -95.06 0 Comment
CaptainVegetable < 20 8/5/2011 Outperform 5Y $7.14 -45.73% +65.11% -110.84 0 Comment
pobeda79 32.43 6/20/2011 Outperform 5Y $6.90 -43.84% +58.55% -102.39 0 Comment
amsteinberg86 < 20 5/31/2011 Outperform 3Y $8.64 -55.15% +48.96% -104.12 0 Comment
codyjr002 98.37 5/27/2011 Outperform 5Y $8.64 -55.15% +50.38% -105.53 0 Comment
Thleter 57.96 5/24/2011 Outperform 1Y $8.10 -52.16% +52.13% -104.29 1 Comment
ag77840 23.43 5/18/2011 Outperform 5Y $8.61 -54.99% +49.62% -104.61 0 Comment
Doggity 72.16 5/17/2011 Outperform 5Y $8.64 -55.15% +51.30% -106.45 0 Comment
Euro247 35.79 5/13/2011 Outperform 5Y $8.79 -55.92% +49.97% -105.88 0 Comment
inouye 40.87 5/3/2011 Outperform 1Y $8.52 -54.52% +48.10% -102.62 0 Comment
NVTreasureHunter 29.02 4/27/2011 Outperform NS $9.00 -56.94% +48.66% -105.60 0 Comment
Squeege1981 73.88 4/18/2011 Outperform 5Y $8.64 -55.15% +53.73% -108.88 0 Comment
reachmygoals1 < 20 4/11/2011 Outperform 3M $8.94 -56.66% +50.95% -107.60 0 Comment
limeonaire 98.39 4/4/2011 Outperform 5Y $9.00 -56.94% +50.46% -107.41 0 Comment
ajhers2 < 20 3/25/2011 Outperform 5Y $8.46 -54.20% +52.28% -106.47 0 Comment
lombardy 36.05 3/22/2011 Outperform 5Y $7.62 -49.15% +54.76% -103.91 0 Comment
binyalazar < 20 3/10/2011 Outperform 5Y $8.99 -56.92% +53.74% -110.66 0 Comment
WorldOnFire 28.35 2/23/2011 Outperform 3W $8.70 -55.46% +52.38% -107.84 0 Comment
HackInvestor < 20 2/22/2011 Outperform 5Y $9.12 -57.51% +50.81% -108.32 0 Comment
cheaply 20.81 2/10/2011 Outperform 1Y $11.16 -65.28% +52.55% -117.83 1 Comment
phineas333 30.81 2/10/2011 Outperform 5Y $11.04 -64.90% +52.55% -117.45 0 Comment
Cjbrat1 29.32 1/10/2011 Outperform 5Y $12.36 -68.65% +58.60% -127.25 0 Comment
atlasbooks 87.90 1/4/2011 Outperform 3M $12.96 -70.10% +57.67% -127.77 0 Comment
FinanceGuy58 63.84 12/20/2010 Outperform 5Y $13.14 -70.51% +61.07% -131.58 0 Comment
Okcfirefighter < 20 12/17/2010 Outperform 5Y $12.72 -69.54% +61.46% -131.00 0 Comment
smcnei2 82.39 12/13/2010 Outperform NS $13.80 -71.92% +60.54% -132.46 0 Comment
huthuthike 28.46 12/10/2010 Outperform 5Y $16.56 -76.60% +61.41% -138.01 0 Comment
Results 1 - 99 of 190 : 1 2 Next »

Featured Broker Partners


Advertisement